Time;durP1;ratioP1;P1;durP2;ratioP2;P2;SDS_P1;SDS_P2;PMS_P1;PMS_P2;Temp;Humidity;BMP_temperature;BMP_pressure;BME280_temperature;BME280_humidity;BME280_pressure;Samples;Min_cycle;Max_cycle;Signal;HPM_P1;HPM_P2
2022/06/15 00:01:38;;;;;;;4.43;2.83;;;;;;;;;;7406960;19;20141;-83
2022/06/15 00:04:04;;;;;;;3.10;2.73;;;;;;;;;;7407036;19;20526;-81
2022/06/15 00:06:31;;;;;;;4.30;2.53;;;;;;;;;;7393920;19;20168;-80
2022/06/15 00:08:58;;;;;;;3.73;2.73;;;;;;;;;;7390978;19;20129;-81
2022/06/15 00:11:25;;;;;;;3.33;2.77;;;;;;;;;;7391024;19;20149;-80
2022/06/15 00:13:52;;;;;;;9.50;2.83;;;;;;;;;;7415851;19;20156;-85
2022/06/15 00:16:19;;;;;;;2.93;2.40;;;;;;;;;;7420796;19;20161;-85
2022/06/15 00:18:45;;;;;;;3.27;2.47;;;;;;;;;;7423235;19;20173;-85
2022/06/15 00:21:12;;;;;;;3.93;3.00;;;;;;;;;;7424606;19;20152;-85
2022/06/15 00:23:38;;;;;;;2.90;2.60;;;;;;;;;;7425674;19;20163;-84
2022/06/15 00:26:05;;;;;;;2.97;2.60;;;;;;;;;;7394563;19;20173;-80
2022/06/15 00:28:32;;;;;;;5.30;2.63;;;;;;;;;;7397075;19;20216;-81
2022/06/15 00:30:58;;;;;;;4.70;2.87;;;;;;;;;;7389565;19;20148;-83
2022/06/15 00:33:24;;;;;;;4.47;2.57;;;;;;;;;;7384615;19;20192;-80
2022/06/15 00:36:00;;;;;;;3.10;2.67;;;;;;;;;;7389825;19;20934;-80
2022/06/15 00:38:27;;;;;;;4.07;3.23;;;;;;;;;;7393187;19;20628;-82
2022/06/15 00:40:53;;;;;;;3.90;2.83;;;;;;;;;;7386200;19;20144;-83
2022/06/15 00:43:38;;;;;;;6.80;2.70;;;;;;;;;;7389355;19;20149;-79
2022/06/15 00:46:07;;;;;;;3.60;2.80;;;;;;;;;;7391371;19;20177;-83
2022/06/15 00:48:33;;;;;;;4.10;3.13;;;;;;;;;;7390517;19;20132;-80
2022/06/15 00:50:59;;;;;;;6.43;2.93;;;;;;;;;;7384228;19;20145;-86
2022/06/15 00:53:25;;;;;;;4.50;2.87;;;;;;;;;;7392610;19;20161;-80
2022/06/15 00:55:51;;;;;;;4.73;2.70;;;;;;;;;;7389120;19;20192;-81
2022/06/15 00:58:17;;;;;;;4.23;2.97;;;;;;;;;;7390913;19;20151;-82
2022/06/15 01:00:43;;;;;;;3.77;2.73;;;;;;;;;;7384842;19;20144;-82
2022/06/15 01:03:11;;;;;;;5.10;2.80;;;;;;;;;;7385174;19;20141;-80
2022/06/15 01:05:43;;;;;;;4.30;2.93;;;;;;;;;;7384475;19;20153;-80
2022/06/15 01:08:16;;;;;;;6.33;2.93;;;;;;;;;;7384916;19;20177;-80
2022/06/15 01:10:51;;;;;;;4.77;2.93;;;;;;;;;;7379570;19;20145;-80
2022/06/15 01:13:36;;;;;;;4.70;2.80;;;;;;;;;;7382561;19;20158;-82
2022/06/15 01:16:12;;;;;;;4.40;2.63;;;;;;;;;;7386967;19;20646;-81
2022/06/15 01:18:38;;;;;;;5.00;2.67;;;;;;;;;;7392289;19;20148;-79
2022/06/15 01:21:13;;;;;;;5.33;3.00;;;;;;;;;;7426438;19;20132;-84
2022/06/15 01:23:57;;;;;;;2.87;2.37;;;;;;;;;;7427121;19;20168;-84
2022/06/15 01:26:23;;;;;;;4.40;2.80;;;;;;;;;;7389112;19;20220;-80
2022/06/15 01:28:54;;;;;;;3.10;2.63;;;;;;;;;;7389052;19;20160;-83
2022/06/15 01:31:36;;;;;;;4.00;3.23;;;;;;;;;;7393643;19;20736;-80
2022/06/15 01:34:20;;;;;;;3.87;3.17;;;;;;;;;;7391036;19;20491;-80
2022/06/15 13:32:57;;;;;;;6.75;3.95;;;;;;;;;;7395042;19;20199;-80
2022/06/15 13:35:23;;;;;;;4.15;3.72;;;;;;;;;;7401690;19;20153;-80
2022/06/15 13:38:08;;;;;;;4.25;3.83;;;;;;;;;;7393577;19;20152;-80
2022/06/15 13:41:06;;;;;;;6.43;3.90;;;;;;;;;;7395237;19;20137;-80
2022/06/15 13:43:32;;;;;;;4.72;3.40;;;;;;;;;;7391371;19;20137;-80
2022/06/15 13:46:00;;;;;;;5.07;3.25;;;;;;;;;;7395297;19;20669;-80
2022/06/15 13:48:38;;;;;;;5.95;3.72;;;;;;;;;;7393566;19;20165;-80
2022/06/15 13:51:10;;;;;;;4.57;4.18;;;;;;;;;;7392900;19;20155;-80
2022/06/15 13:53:36;;;;;;;5.22;3.60;;;;;;;;;;7392692;19;20140;-80
2022/06/15 13:56:10;;;;;;;4.50;3.70;;;;;;;;;;7392383;19;20205;-80
2022/06/15 13:58:36;;;;;;;4.68;3.58;;;;;;;;;;7392195;19;20150;-81
2022/06/15 14:01:12;;;;;;;5.90;3.92;;;;;;;;;;7395284;19;20129;-80
2022/06/15 14:03:53;;;;;;;4.45;4.05;;;;;;;;;;7391408;19;20144;-80
2022/06/15 14:06:42;;;;;;;5.03;3.80;;;;;;;;;;7394041;19;20192;-80
2022/06/15 14:09:15;;;;;;;6.82;3.78;;;;;;;;;;7392648;19;20175;-80
2022/06/15 14:12:00;;;;;;;7.63;4.25;;;;;;;;;;7394583;19;20147;-80
2022/06/15 14:14:44;;;;;;;7.53;3.72;;;;;;;;;;7395263;19;20136;-82
2022/06/15 14:17:16;;;;;;;5.40;3.78;;;;;;;;;;7391318;19;20179;-80
2022/06/15 14:19:45;;;;;;;5.50;3.97;;;;;;;;;;7393979;19;20152;-80
2022/06/15 14:22:13;;;;;;;4.45;3.83;;;;;;;;;;7394943;19;20124;-79
2022/06/15 14:24:39;;;;;;;3.97;3.58;;;;;;;;;;7393632;19;20481;-79
2022/06/15 14:27:07;;;;;;;7.25;4.15;;;;;;;;;;7390816;19;20194;-80
2022/06/15 14:29:35;;;;;;;6.47;3.90;;;;;;;;;;7397892;19;20140;-80
2022/06/15 14:32:02;;;;;;;4.10;3.70;;;;;;;;;;7401074;19;20144;-80
2022/06/15 14:34:29;;;;;;;6.50;3.72;;;;;;;;;;7401109;19;20124;-82
2022/06/15 14:37:00;;;;;;;4.63;3.60;;;;;;;;;;7399345;19;20513;-80
2022/06/15 14:39:28;;;;;;;5.25;3.65;;;;;;;;;;7398946;19;20153;-80
2022/06/15 14:42:26;;;;;;;5.65;3.80;;;;;;;;;;7401185;19;20143;-80
2022/06/15 14:44:53;;;;;;;7.88;3.97;;;;;;;;;;7398258;19;20145;-80
2022/06/15 14:47:21;;;;;;;3.80;3.50;;;;;;;;;;7397768;19;20190;-80
2022/06/15 14:49:49;;;;;;;4.10;3.75;;;;;;;;;;7398508;19;20140;-80
2022/06/15 14:52:24;;;;;;;3.80;3.50;;;;;;;;;;7403257;19;20144;-80
2022/06/15 14:54:58;;;;;;;4.97;4.05;;;;;;;;;;7399805;19;20160;-80
2022/06/15 14:57:26;;;;;;;3.75;3.45;;;;;;;;;;7397532;19;20189;-80
2022/06/15 14:59:54;;;;;;;6.03;3.75;;;;;;;;;;7402765;19;20153;-80
2022/06/15 15:02:20;;;;;;;5.03;4.13;;;;;;;;;;7414891;19;20164;-80
2022/06/15 15:04:48;;;;;;;5.43;3.90;;;;;;;;;;7404407;19;20133;-80
2022/06/15 15:10:37;;;;;;;6.03;3.60;;;;;;;;;;7431868;19;20180;-80
2022/06/15 15:13:16;;;;;;;5.50;3.72;;;;;;;;;;7402792;19;20171;-80
2022/06/15 15:16:02;;;;;;;5.65;3.55;;;;;;;;;;7399029;19;20172;-80
2022/06/15 15:18:30;;;;;;;6.20;3.80;;;;;;;;;;7397407;19;20163;-80
2022/06/15 15:20:57;;;;;;;5.90;3.88;;;;;;;;;;7418269;19;20144;-81
2022/06/15 15:23:41;;;;;;;6.25;3.88;;;;;;;;;;7430812;19;20170;-80
2022/06/15 15:26:08;;;;;;;5.68;4.15;;;;;;;;;;7430535;19;20170;-81
2022/06/15 15:34:31;;;;;;;3.95;3.40;;;;;;;;;;7401926;19;20139;-80
2022/06/15 15:39:43;;;;;;;5.95;3.70;;;;;;;;;;7400381;19;20172;-80
2022/06/15 15:42:10;;;;;;;4.80;3.83;;;;;;;;;;7401620;19;20129;-80
2022/06/15 15:44:36;;;;;;;4.00;3.70;;;;;;;;;;7398898;19;20592;-80
2022/06/15 15:47:04;;;;;;;11.52;4.00;;;;;;;;;;7398565;19;20148;-80
2022/06/15 15:49:30;;;;;;;6.40;3.97;;;;;;;;;;7398266;19;20135;-80
2022/06/15 15:51:58;;;;;;;5.05;4.05;;;;;;;;;;7399051;19;20149;-80
2022/06/15 15:54:24;;;;;;;4.60;4.20;;;;;;;;;;7397020;19;20173;-80
2022/06/15 15:56:50;;;;;;;4.20;3.90;;;;;;;;;;7397274;19;20157;-80
2022/06/15 15:59:20;;;;;;;4.47;4.07;;;;;;;;;;7397992;19;20473;-80
2022/06/15 16:01:46;;;;;;;7.82;4.03;;;;;;;;;;7397128;19;20137;-82
2022/06/15 16:04:12;;;;;;;4.43;3.88;;;;;;;;;;7398971;19;20124;-80
2022/06/15 16:06:39;;;;;;;7.25;3.90;;;;;;;;;;7393326;19;20243;-80
2022/06/15 16:09:06;;;;;;;5.10;3.67;;;;;;;;;;7395173;19;20148;-80
2022/06/15 16:11:32;;;;;;;6.18;4.25;;;;;;;;;;7395660;19;20145;-80
2022/06/15 16:13:58;;;;;;;8.27;4.05;;;;;;;;;;7397388;19;20121;-80
2022/06/15 16:16:24;;;;;;;8.57;3.92;;;;;;;;;;7393890;19;20521;-80
2022/06/15 16:18:50;;;;;;;6.13;4.13;;;;;;;;;;7408611;19;20121;-80
2022/06/15 16:21:16;;;;;;;4.30;3.90;;;;;;;;;;7396753;19;20125;-80
2022/06/15 16:23:43;;;;;;;4.95;3.80;;;;;;;;;;7393713;19;20613;-80
2022/06/15 16:26:09;;;;;;;4.25;3.78;;;;;;;;;;7392759;19;20736;-79
2022/06/15 16:28:36;;;;;;;7.10;4.50;;;;;;;;;;7398445;19;20136;-80
2022/06/15 16:31:03;;;;;;;6.00;4.30;;;;;;;;;;7396534;19;20167;-80
2022/06/15 16:33:29;;;;;;;4.35;3.90;;;;;;;;;;7397098;19;20133;-80
2022/06/15 16:35:56;;;;;;;4.53;3.85;;;;;;;;;;7392786;19;20488;-80
2022/06/15 16:38:22;;;;;;;6.75;5.20;;;;;;;;;;7398417;19;20615;-80
2022/06/15 16:40:48;;;;;;;7.72;5.85;;;;;;;;;;7395321;19;20486;-80
2022/06/15 16:43:16;;;;;;;4.25;3.85;;;;;;;;;;7395297;19;20145;-80
2022/06/15 16:45:42;;;;;;;6.78;4.43;;;;;;;;;;7395739;19;20141;-80
2022/06/15 16:48:11;;;;;;;4.90;3.75;;;;;;;;;;7396407;19;20176;-79
2022/06/15 16:50:37;;;;;;;5.93;4.00;;;;;;;;;;7392082;19;20145;-80
2022/06/15 16:53:03;;;;;;;4.93;4.03;;;;;;;;;;7397207;19;20163;-80
2022/06/15 16:55:42;;;;;;;9.52;4.28;;;;;;;;;;7396244;19;20137;-80
2022/06/15 16:58:08;;;;;;;5.22;4.57;;;;;;;;;;7395275;19;20128;-80
2022/06/15 17:00:34;;;;;;;7.75;5.28;;;;;;;;;;7392414;19;20162;-79
2022/06/15 17:03:00;;;;;;;4.55;4.15;;;;;;;;;;7394443;19;20575;-80
2022/06/15 17:05:26;;;;;;;5.57;4.47;;;;;;;;;;7393511;19;20159;-80
2022/06/15 17:07:52;;;;;;;5.47;4.03;;;;;;;;;;7393727;19;20132;-79
2022/06/15 17:10:19;;;;;;;4.38;3.90;;;;;;;;;;7397936;19;20133;-80
2022/06/15 17:12:45;;;;;;;5.05;4.03;;;;;;;;;;7397239;19;20144;-79
2022/06/15 17:15:12;;;;;;;7.20;4.10;;;;;;;;;;7394467;19;20160;-79
2022/06/15 17:17:38;;;;;;;6.32;4.10;;;;;;;;;;7393370;19;20156;-79
2022/06/15 17:20:05;;;;;;;7.95;4.93;;;;;;;;;;7395573;19;20141;-79
2022/06/15 17:22:32;;;;;;;6.22;4.15;;;;;;;;;;7393004;19;20163;-79
2022/06/15 17:24:58;;;;;;;6.78;5.18;;;;;;;;;;7395065;19;20610;-79
2022/06/15 17:27:24;;;;;;;5.07;4.57;;;;;;;;;;7392294;19;20176;-79
2022/06/15 17:29:50;;;;;;;5.28;4.30;;;;;;;;;;7391872;19;20583;-79
2022/06/15 17:32:16;;;;;;;5.50;4.97;;;;;;;;;;7393448;19;20184;-79
2022/06/15 17:34:42;;;;;;;4.80;4.10;;;;;;;;;;7394288;19;20469;-80
2022/06/15 17:37:08;;;;;;;5.80;4.38;;;;;;;;;;7393226;19;20156;-79
2022/06/15 17:39:34;;;;;;;4.32;3.83;;;;;;;;;;7392921;19;20659;-79
2022/06/15 17:42:01;;;;;;;6.03;4.47;;;;;;;;;;7393561;19;20141;-79
2022/06/15 17:44:27;;;;;;;6.72;3.88;;;;;;;;;;7394915;19;20140;-80
2022/06/15 17:46:53;;;;;;;5.47;3.70;;;;;;;;;;7392952;19;20149;-79
2022/06/15 17:49:20;;;;;;;5.13;4.03;;;;;;;;;;7394012;19;20635;-80
2022/06/15 17:51:46;;;;;;;6.13;5.13;;;;;;;;;;7393956;19;20137;-80
2022/06/15 17:54:13;;;;;;;8.65;7.95;;;;;;;;;;7397154;19;20128;-80
2022/06/15 17:56:40;;;;;;;9.18;5.97;;;;;;;;;;7393484;19;20148;-80
2022/06/15 17:59:08;;;;;;;8.18;4.18;;;;;;;;;;7395961;19;20500;-80
2022/06/15 18:01:36;;;;;;;7.18;4.10;;;;;;;;;;7393005;19;20178;-79
2022/06/15 18:04:02;;;;;;;5.85;5.22;;;;;;;;;;7392152;19;20116;-79
2022/06/15 18:06:28;;;;;;;6.35;4.75;;;;;;;;;;7408639;19;20176;-80
2022/06/15 18:08:54;;;;;;;6.03;5.35;;;;;;;;;;7415627;19;20153;-79
2022/06/15 18:11:20;;;;;;;6.82;3.95;;;;;;;;;;7386311;19;20618;-80
2022/06/15 18:13:48;;;;;;;10.35;4.60;;;;;;;;;;7381127;19;20155;-80
2022/06/15 18:16:19;;;;;;;7.43;4.22;;;;;;;;;;7389226;19;20482;-80
2022/06/15 18:18:48;;;;;;;7.93;4.65;;;;;;;;;;7383098;19;20184;-80
2022/06/15 18:21:14;;;;;;;5.35;4.15;;;;;;;;;;7385210;19;20133;-79
2022/06/15 18:23:41;;;;;;;6.70;4.18;;;;;;;;;;7384911;19;20208;-80
2022/06/15 18:26:07;;;;;;;8.23;4.20;;;;;;;;;;7378648;19;20145;-80
2022/06/15 18:28:33;;;;;;;7.95;3.80;;;;;;;;;;7390522;19;20157;-80
2022/06/15 18:30:59;;;;;;;7.57;4.35;;;;;;;;;;7385949;19;20250;-80
2022/06/15 18:33:27;;;;;;;10.15;4.93;;;;;;;;;;7391115;19;20187;-80
2022/06/15 18:35:54;;;;;;;6.72;4.15;;;;;;;;;;7415786;19;20139;-80
2022/06/15 18:38:22;;;;;;;8.50;4.43;;;;;;;;;;7413896;19;20125;-80
2022/06/15 18:40:48;;;;;;;6.90;3.97;;;;;;;;;;7384356;19;20137;-80
2022/06/15 18:48:46;;;;;;;8.15;4.35;;;;;;;;;;7394150;19;20136;-81
2022/06/15 18:51:13;;;;;;;8.30;4.00;;;;;;;;;;7381157;19;20144;-80
2022/06/15 18:53:39;;;;;;;8.25;4.38;;;;;;;;;;7386643;19;20137;-81
2022/06/15 18:56:05;;;;;;;8.68;4.72;;;;;;;;;;7388809;19;20137;-80
2022/06/15 18:58:33;;;;;;;6.78;4.43;;;;;;;;;;7387687;19;20144;-80
2022/06/15 19:00:59;;;;;;;7.68;3.92;;;;;;;;;;7394275;19;20117;-81
2022/06/15 19:03:24;;;;;;;8.27;3.92;;;;;;;;;;7390944;19;20188;-80
2022/06/15 19:05:50;;;;;;;11.93;3.97;;;;;;;;;;7383089;19;20498;-81
2022/06/15 19:08:17;;;;;;;6.75;4.45;;;;;;;;;;7387086;19;20162;-82
2022/06/15 19:10:44;;;;;;;7.53;4.38;;;;;;;;;;7385983;19;20167;-81
2022/06/15 19:13:11;;;;;;;8.45;4.50;;;;;;;;;;7384286;19;20133;-80
2022/06/15 19:15:37;;;;;;;9.35;4.85;;;;;;;;;;7388972;19;20183;-80
2022/06/15 19:18:04;;;;;;;6.60;4.65;;;;;;;;;;7390820;19;20133;-80
2022/06/15 19:20:30;;;;;;;9.13;4.70;;;;;;;;;;7389165;19;20148;-80
2022/06/15 19:22:56;;;;;;;8.38;4.05;;;;;;;;;;7390423;19;20171;-81
2022/06/15 19:25:23;;;;;;;8.95;4.53;;;;;;;;;;7389042;19;20144;-80
2022/06/15 19:27:49;;;;;;;5.40;4.32;;;;;;;;;;7397266;19;20133;-80
2022/06/15 19:30:17;;;;;;;6.95;4.90;;;;;;;;;;7401376;19;20129;-80
2022/06/15 19:32:46;;;;;;;11.23;4.88;;;;;;;;;;7400617;19;20508;-81
2022/06/15 19:35:17;;;;;;;8.35;4.75;;;;;;;;;;7397363;19;20157;-81
2022/06/15 19:37:43;;;;;;;9.57;4.70;;;;;;;;;;7392674;19;20184;-80
2022/06/15 19:40:09;;;;;;;7.75;5.13;;;;;;;;;;7393789;19;20208;-80
2022/06/15 19:42:35;;;;;;;6.28;4.75;;;;;;;;;;7396842;19;20156;-81
2022/06/15 19:45:01;;;;;;;7.30;4.25;;;;;;;;;;7397786;19;20117;-80
2022/06/15 19:47:27;;;;;;;6.70;4.60;;;;;;;;;;7392337;19;20567;-80
2022/06/15 19:49:53;;;;;;;11.60;4.85;;;;;;;;;;7389001;19;20501;-80
2022/06/15 19:52:20;;;;;;;9.23;5.05;;;;;;;;;;7395353;19;20460;-81
2022/06/15 19:54:46;;;;;;;9.95;4.43;;;;;;;;;;7388084;19;20148;-81
2022/06/15 19:57:12;;;;;;;8.32;4.53;;;;;;;;;;7374026;19;20556;-82
2022/06/15 19:59:38;;;;;;;7.82;4.20;;;;;;;;;;7388843;19;20157;-82
2022/06/15 20:02:04;;;;;;;7.90;4.75;;;;;;;;;;7388380;19;20157;-82
2022/06/15 20:04:31;;;;;;;9.15;5.03;;;;;;;;;;7381242;19;20500;-82
2022/06/15 20:07:07;;;;;;;8.90;5.20;;;;;;;;;;7392966;19;20188;-82
2022/06/15 20:09:33;;;;;;;7.28;5.30;;;;;;;;;;7395000;19;20132;-82
2022/06/15 20:12:00;;;;;;;5.55;4.97;;;;;;;;;;7395589;19;20153;-82
2022/06/15 20:14:26;;;;;;;7.20;4.40;;;;;;;;;;7395171;19;20174;-82
2022/06/15 20:16:52;;;;;;;8.00;5.05;;;;;;;;;;7390118;19;20183;-82
2022/06/15 20:19:20;;;;;;;7.18;4.72;;;;;;;;;;7390435;19;20233;-82
2022/06/15 20:21:47;;;;;;;7.80;4.68;;;;;;;;;;7386867;19;20166;-82
2022/06/15 20:24:14;;;;;;;7.45;4.65;;;;;;;;;;7390939;19;20145;-82
2022/06/15 20:26:40;;;;;;;9.35;4.55;;;;;;;;;;7390708;19;20532;-82
2022/06/15 20:29:09;;;;;;;9.07;5.18;;;;;;;;;;7391919;19;20137;-81
2022/06/15 20:31:35;;;;;;;6.65;4.18;;;;;;;;;;7394697;19;20634;-81
2022/06/15 20:34:01;;;;;;;6.35;4.43;;;;;;;;;;7397133;19;20133;-82
2022/06/15 20:36:27;;;;;;;5.80;5.05;;;;;;;;;;7390734;19;20240;-81
2022/06/15 20:38:55;;;;;;;7.22;4.18;;;;;;;;;;7389445;19;20162;-81
2022/06/15 20:41:22;;;;;;;6.22;4.07;;;;;;;;;;7397170;19;20611;-82
2022/06/15 20:43:50;;;;;;;6.68;4.32;;;;;;;;;;7390272;19;20152;-81
2022/06/15 20:46:17;;;;;;;7.10;4.82;;;;;;;;;;7393986;19;20177;-81
2022/06/15 20:48:43;;;;;;;8.75;4.70;;;;;;;;;;7395915;19;20133;-82
2022/06/15 20:51:10;;;;;;;9.45;4.55;;;;;;;;;;7396302;19;20652;-81
2022/06/15 20:53:36;;;;;;;5.38;3.95;;;;;;;;;;7388930;19;20220;-81
2022/06/15 20:58:47;;;;;;;4.47;4.07;;;;;;;;;;7394776;19;20616;-81
2022/06/15 21:01:13;;;;;;;5.78;4.53;;;;;;;;;;7387643;19;20144;-81
2022/06/15 21:03:39;;;;;;;7.38;4.70;;;;;;;;;;7419032;19;20125;-81
2022/06/15 21:06:05;;;;;;;7.55;4.80;;;;;;;;;;7421710;19;20140;-82
2022/06/15 21:08:32;;;;;;;6.18;4.82;;;;;;;;;;7408849;19;20131;-82
2022/06/15 21:19:14;;;;;;;7.50;4.50;;;;;;;;;;7419566;19;20144;-82
2022/06/15 21:21:40;;;;;;;8.35;4.40;;;;;;;;;;7416318;19;21094;-82
2022/06/15 21:24:08;;;;;;;7.88;4.72;;;;;;;;;;7422939;19;20133;-82
2022/06/15 21:26:34;;;;;;;8.50;4.60;;;;;;;;;;7418288;19;20161;-82
2022/06/15 21:29:00;;;;;;;11.23;4.93;;;;;;;;;;7423320;19;20887;-81
2022/06/15 21:31:27;;;;;;;7.68;4.95;;;;;;;;;;7424428;19;20156;-82
2022/06/15 21:33:53;;;;;;;8.05;4.50;;;;;;;;;;7420075;19;20153;-82
2022/06/15 21:36:19;;;;;;;5.85;4.50;;;;;;;;;;7419081;19;20213;-81
2022/06/15 21:38:45;;;;;;;7.18;4.28;;;;;;;;;;7418167;19;20150;-81
2022/06/15 21:41:12;;;;;;;7.53;3.95;;;;;;;;;;7417403;19;20113;-81
2022/06/15 21:43:38;;;;;;;6.50;4.03;;;;;;;;;;7424927;19;20166;-83
2022/06/15 21:46:05;;;;;;;7.03;3.92;;;;;;;;;;7421459;19;20180;-82
2022/06/15 21:48:32;;;;;;;5.70;4.18;;;;;;;;;;7421964;19;20172;-82
2022/06/15 21:51:00;;;;;;;7.68;4.07;;;;;;;;;;7419797;19;20384;-81
2022/06/15 21:53:27;;;;;;;6.97;4.10;;;;;;;;;;7415194;19;20145;-83
2022/06/15 21:55:54;;;;;;;11.65;4.72;;;;;;;;;;7424649;19;20137;-81
2022/06/15 21:58:21;;;;;;;6.40;4.72;;;;;;;;;;7425025;19;20252;-80
2022/06/15 22:00:47;;;;;;;5.15;4.65;;;;;;;;;;7418440;19;20147;-82
2022/06/15 22:03:14;;;;;;;7.70;4.88;;;;;;;;;;7425195;19;20136;-82
2022/06/15 22:05:42;;;;;;;7.65;4.63;;;;;;;;;;7420689;19;20149;-81
2022/06/15 22:08:08;;;;;;;8.40;4.88;;;;;;;;;;7396806;19;20601;-81
2022/06/15 22:10:34;;;;;;;7.10;4.63;;;;;;;;;;7391363;19;20155;-81
2022/06/15 22:13:00;;;;;;;7.53;4.50;;;;;;;;;;7384787;19;20171;-81
2022/06/15 22:15:26;;;;;;;7.05;4.35;;;;;;;;;;7393571;19;20155;-80
2022/06/15 22:17:52;;;;;;;6.43;4.90;;;;;;;;;;7389620;19;20163;-81
2022/06/15 22:20:19;;;;;;;6.90;4.40;;;;;;;;;;7389035;19;20196;-81
2022/06/15 22:22:46;;;;;;;4.95;4.20;;;;;;;;;;7391183;19;20628;-80
2022/06/15 22:25:12;;;;;;;9.55;4.72;;;;;;;;;;7389635;19;20176;-80
2022/06/15 22:27:38;;;;;;;5.70;4.25;;;;;;;;;;7388527;19;20639;-80
2022/06/15 22:30:05;;;;;;;6.85;4.70;;;;;;;;;;7386155;19;20587;-80
2022/06/15 22:32:31;;;;;;;6.38;4.30;;;;;;;;;;7392588;19;20196;-80
2022/06/15 22:34:57;;;;;;;9.27;4.22;;;;;;;;;;7388803;19;20153;-80
2022/06/15 22:37:23;;;;;;;11.85;4.22;;;;;;;;;;7388190;19;20161;-79
2022/06/15 22:39:49;;;;;;;10.10;5.15;;;;;;;;;;7387771;19;20155;-80
2022/06/15 22:42:15;;;;;;;6.80;4.32;;;;;;;;;;7385938;19;20160;-80
2022/06/15 22:44:41;;;;;;;7.13;4.75;;;;;;;;;;7388451;19;20145;-80
2022/06/15 22:47:07;;;;;;;7.57;4.38;;;;;;;;;;7386164;19;20196;-80
2022/06/15 22:52:18;;;;;;;7.20;4.05;;;;;;;;;;7394131;19;20144;-79
2022/06/15 22:54:44;;;;;;;5.72;4.43;;;;;;;;;;7391640;19;20148;-79
2022/06/15 22:57:10;;;;;;;8.32;3.90;;;;;;;;;;7393673;19;20160;-79
2022/06/15 22:59:36;;;;;;;7.53;5.05;;;;;;;;;;7392647;19;20175;-79
2022/06/15 23:02:02;;;;;;;7.47;4.30;;;;;;;;;;7391902;19;20245;-79
2022/06/15 23:04:29;;;;;;;5.97;4.05;;;;;;;;;;7388179;19;20836;-79
2022/06/15 23:06:55;;;;;;;5.97;3.38;;;;;;;;;;7389854;19;20370;-79
2022/06/15 23:09:21;;;;;;;8.40;3.50;;;;;;;;;;7392950;19;20220;-79
2022/06/15 23:11:47;;;;;;;7.38;3.53;;;;;;;;;;7388093;19;20156;-79
2022/06/15 23:14:14;;;;;;;9.00;4.07;;;;;;;;;;7388191;19;20129;-79
2022/06/15 23:16:40;;;;;;;6.93;3.40;;;;;;;;;;7389403;19;20629;-79
2022/06/15 23:19:07;;;;;;;6.20;3.60;;;;;;;;;;7390286;19;20151;-82
2022/06/15 23:21:33;;;;;;;8.13;3.58;;;;;;;;;;7391007;19;20149;-79
2022/06/15 23:23:59;;;;;;;6.07;3.25;;;;;;;;;;7388827;19;20153;-79
2022/06/15 23:26:25;;;;;;;7.65;3.33;;;;;;;;;;7388085;19;20499;-79
2022/06/15 23:28:52;;;;;;;9.30;3.47;;;;;;;;;;7390029;19;20193;-80
2022/06/15 23:31:19;;;;;;;5.82;3.25;;;;;;;;;;7393727;19;20173;-79
2022/06/15 23:33:46;;;;;;;5.13;4.10;;;;;;;;;;7388675;19;20161;-79
2022/06/15 23:36:13;;;;;;;6.50;3.60;;;;;;;;;;7392293;19;20610;-79
2022/06/15 23:38:41;;;;;;;5.80;3.00;;;;;;;;;;7391660;19;20148;-79
2022/06/15 23:41:08;;;;;;;5.25;3.08;;;;;;;;;;7387518;19;20173;-80
2022/06/15 23:43:34;;;;;;;9.13;3.20;;;;;;;;;;7389350;19;20626;-79
2022/06/15 23:48:44;;;;;;;6.45;3.25;;;;;;;;;;7388446;19;20162;-79
2022/06/15 23:51:10;;;;;;;6.60;3.00;;;;;;;;;;7387177;19;20144;-79
2022/06/15 23:53:36;;;;;;;8.40;3.22;;;;;;;;;;7385642;19;20157;-79
2022/06/15 23:56:02;;;;;;;7.53;3.55;;;;;;;;;;7390595;19;20168;-79
2022/06/15 23:58:28;;;;;;;6.10;3.10;;;;;;;;;;7397538;19;20611;-79
